Monday, July 23, 2018, 11:35 AM EDT
Back to Local

KFWN, Sussex Airport

Location: Sussex, NJ, United States Lat: 41.2
Local Time: 11:35 AM EDT (15:35 GMT) Lon: -74.633
Time Zone: US/Eastern Elev: 419 ft

Show me the last for .
Show Decoded

2018-07-23 10:53 METAR KFWN 231453Z AUTO VRB04KT 10SM BKN017 OVC023 25/23 A3010 RMK AO2 RAB11E47
                 SLP189 P0002 60025 T02500233 53015 =
2018-07-23 09:53 METAR KFWN 231353Z AUTO 15003KT 10SM BKN015 BKN022 OVC028 25/24 A3008 RMK AO2
                 RAB19E43 SLP183 P0001 T02500239 =
2018-07-23 09:24 METAR KFWN 231324Z AUTO 00000KT 10SM -RA SCT011 OVC019 25/24 A3008 RMK AO2 RAB19
                 P0000 T02500239 =
2018-07-23 09:22 METAR KFWN 231322Z AUTO 00000KT 10SM -RA BKN012 OVC019 25/24 A3008 RMK AO2 RAB19
                 P0000 T02500239 =
2018-07-23 09:11 METAR KFWN 231311Z AUTO 00000KT 10SM BKN017 BKN065 24/23 A3008 RMK AO2 T02440233
                 =
2018-07-23 08:53 METAR KFWN 231253Z AUTO 00000KT 10SM FEW018 BKN032 BKN050 24/24 A3007 RMK AO2
                 RAE50 SLP177 P0022 T02440239 =
2018-07-23 08:42 METAR KFWN 231242Z AUTO 00000KT 3SM -RA BR FEW019 BKN029 OVC055 24/23 A3006 RMK
                 AO2 P0022 T02390233 =
2018-07-23 08:38 METAR KFWN 231238Z AUTO 00000KT 1SM RA BR FEW019 BKN029 OVC055 23/23 A3006 RMK
                 AO2 P0022 T02330233 =
2018-07-23 08:31 METAR KFWN 231231Z AUTO 00000KT 1 1/2SM RA BR SCT019 BKN027 OVC055 23/23 A3006
                 RMK AO2 P0019 T02330233 =
2018-07-23 08:07 METAR KFWN 231207Z AUTO 23003KT 3SM -RA BR SCT010 BKN016 OVC023 23/23 A3006 RMK
                 AO2 P0013 T02330228 =
2018-07-23 08:05 METAR KFWN 231205Z AUTO VRB03KT 1 1/2SM RA BR SCT010 OVC018 23/23 A3006 RMK AO2
                 P0013 T02330228 =
2018-07-23 07:53 METAR KFWN 231153Z AUTO 00000KT 1/2SM +RA FG SCT008 OVC014 23/23 A3006 RMK AO2
                 SLP175 P0047 60061 70103 T02330233 10239 20228 51009 =
2018-07-23 07:50 METAR KFWN 231150Z AUTO 20004KT 1SM +RA BR SCT008 BKN016 OVC027 23/23 A3006 RMK
                 AO2 P0032 =
2018-07-23 07:48 METAR KFWN 231148Z AUTO 00000KT 3/4SM RA BR FEW008 BKN014 OVC028 23/23 A3005 RMK
                 AO2 P0027 =
2018-07-23 07:36 METAR KFWN 231136Z AUTO 28003KT 1SM +RA BR FEW011 BKN018 OVC038 23/23 A3005 RMK
                 AO2 P0018 T02330228 =
2018-07-23 07:31 METAR KFWN 231131Z AUTO 30003KT 3/4SM +RA BR SCT020 OVC040 23/23 A3005 RMK AO2
                 P0016 T02330228 =
2018-07-23 07:12 METAR KFWN 231112Z AUTO 00000KT 1 1/2SM RA BR FEW020 BKN046 OVC110 23/23 A3005
                 RMK AO2 P0005 T02330228 =
2018-07-23 06:53 METAR KFWN 231053Z AUTO 00000KT 5SM -RA BR SCT043 BKN075 OVC090 23/23 A3004 RMK
                 AO2 SLP169 P0013 T02330233 =
2018-07-23 06:37 METAR KFWN 231037Z AUTO 07003KT 3SM -RA BR SCT015 BKN037 OVC095 23/23 A3004 RMK
                 AO2 P0012 T02330228 =
2018-07-23 06:33 METAR KFWN 231033Z AUTO 00000KT 1 3/4SM +RA BR SCT015 BKN035 OVC070 23/23 A3004
                 RMK AO2 P0012 T02330233 =
2018-07-23 06:24 METAR KFWN 231024Z AUTO 00000KT 2SM RA BR SCT017 BKN037 OVC090 23/23 A3003 RMK
                 AO2 VIS 1 1/2V3 P0008 T02330228 =
2018-07-23 06:12 METAR KFWN 231012Z AUTO 00000KT 1 3/4SM +RA BR BKN017 BKN028 BKN041 23/23 A3003
                 RMK AO2 P0005 T02280228 =
2018-07-23 05:53 METAR KFWN 230953Z AUTO 00000KT 6SM -RA BR SCT020 BKN027 OVC110 23/23 A3003 RMK
                 AO2 RAB21 SLP165 P0001 T02330228 =
2018-07-23 04:53 METAR KFWN 230853Z AUTO 00000KT 9SM SCT019 BKN027 23/23 A3002 RMK AO2 SLP163
                 60000 T02330228 53004 =
2018-07-23 03:53 METAR KFWN 230753Z AUTO 00000KT 10SM FEW028 BKN036 BKN045 24/23 A3001 RMK AO2
                 RAB08E17B30E40 SLP158 P0000 T02390228 =
2018-07-23 03:27 METAR KFWN 230727Z AUTO 15003KT 10SM FEW017 SCT022 OVC037 23/23 A3001 RMK AO2
                 RAB08E17 P0000 T02330233 =
2018-07-23 02:53 METAR KFWN 230653Z AUTO 00000KT 10SM BKN020 OVC027 23/23 A3001 RMK AO2
                 RAB0555E08 SLP160 P0000 T02330233 =
2018-07-23 01:53 METAR KFWN 230553Z AUTO 08004KT 10SM FEW015 BKN020 OVC041 22/22 A3001 RMK AO2
                 RAE37 SLP158 P0007 60040 T02220222 10239 20222 58003 =
2018-07-23 01:16 METAR KFWN 230516Z AUTO VRB03KT 5SM -RA BR BKN020 BKN029 OVC036 22/22 A3002 RMK
                 AO2 P0006 T02220222 =
2018-07-23 01:09 METAR KFWN 230509Z AUTO 00000KT 3SM RA BR SCT022 BKN030 OVC036 22/22 A3002 RMK
                 AO2 P0005 T02220222 =
2018-07-23 00:59 METAR KFWN 230459Z AUTO 00000KT 2SM -RA BR BKN022 BKN031 OVC036 22/22 A3003 RMK
                 AO2 VIS 3/4V5 P0001 T02220222 =
2018-07-23 00:53 METAR KFWN 230453Z AUTO VRB05KT 1 1/4SM +RA BR FEW020 BKN024 OVC031 23/23 A3003
                 RMK AO2 VIS 3/4V2 1/2 RAB25 SLP164 P0032 T02280228 402890167 =
2018-07-23 00:43 METAR KFWN 230443Z AUTO 00000KT 3/4SM +RA BR FEW018 BKN022 OVC029 23/23 A3003
                 RMK AO2 RAB25 P0018 T02330233 =
2018-07-23 00:38 METAR KFWN 230438Z AUTO 00000KT 1 3/4SM RA BR BKN020 OVC029 23/23 A3003 RMK AO2
                 RAB25 P0008 T02330233 =
2018-07-22 23:53 METAR KFWN 230353Z AUTO 00000KT 10SM BKN018 OVC022 23/23 A3002 RMK AO2 SLP163
                 T02330228 =
2018-07-22 22:53 METAR KFWN 230253Z AUTO 00000KT 10SM BKN016 OVC022 24/23 A3002 RMK AO2 SLP161
                 60001 T02390228 51006 =
2018-07-22 21:53 METAR KFWN 230153Z AUTO 00000KT 10SM OVC014 23/23 A3002 RMK AO2 RAE19 SLP163
                 P0000 T02330228 =
2018-07-22 21:20 METAR KFWN 230120Z AUTO VRB03KT 8SM OVC016 23/23 A3001 RMK AO2 RAE19 P0000
                 T02330228 =
2018-07-22 20:53 METAR KFWN 230053Z AUTO VRB06KT 10SM -RA OVC013 24/23 A3000 RMK AO2
                 RAB2354E21B40 SLP157 P0001 T02390228 =
2018-07-22 20:49 METAR KFWN 230049Z AUTO VRB03KT 10SM -RA OVC013 24/23 A3000 RMK AO2
                 RAB2354E21B40 P0001 =
2018-07-22 19:53 METAR KFWN 222353Z AUTO 13004KT 7SM OVC017 24/22 A2998 RMK AO2 RAB2255E27 SLP150
                 P0000 60002 T02390222 10289 20239 53011 =
2018-07-22 18:53 METAR KFWN 222253Z AUTO VRB05KT 10SM SCT019 BKN028 BKN050 25/23 A2997 RMK AO2
                 RAB30E47 SLP146 P0002 T02500228 =
2018-07-22 17:53 METAR KFWN 222153Z AUTO 13011G16KT 10SM FEW028 SCT041 BKN048 27/22 A2995 RMK AO2
                 RAB27E36 SLP139 P0000 T02720222 =
2018-07-22 16:53 METAR KFWN 222053Z AUTO 15011G19KT 110V180 10SM FEW027 SCT110 28/22 A2995 RMK
                 AO2 SLP138 T02780222 53002 =
2018-07-22 15:53 METAR KFWN 221953Z AUTO 13010G19KT 10SM SCT028 BKN036 28/22 A2994 RMK AO2 SLP134
                 T02780222 =
2018-07-22 15:50 METAR KFWN 221950Z AUTO 12010G18KT 10SM SCT028 BKN036 28/22 A2994 RMK AO2 =
2018-07-22 15:41 METAR KFWN 221941Z AUTO 13008G15KT 10SM BKN028 28/22 A2994 RMK AO2 T02780222 =
2018-07-22 14:53 METAR KFWN 221853Z AUTO 13007G18KT 070V160 10SM SCT026 SCT035 BKN047 28/22 A2994
                 RMK AO2 SLP137 T02830222 =
2018-07-22 13:53 METAR KFWN 221753Z AUTO 14008G15KT 110V200 10SM BKN032 BKN045 27/22 A2994 RMK
                 AO2 SLP135 60000 T02720217 10278 20222 50007 =
2018-07-22 12:53 METAR KFWN 221653Z AUTO VRB05KT 10SM SCT023 BKN030 BKN040 27/22 A2994 RMK AO2
                 SLP136 T02670222 =
2018-07-22 12:21 METAR KFWN 221621Z AUTO VRB05KT 10SM BKN022 BKN030 OVC036 26/22 A2993 RMK AO2
                 T02560217 =
2018-07-22 11:53 METAR KFWN 221553Z AUTO VRB06KT 10SM SCT022 BKN033 OVC050 26/22 A2992 RMK AO2
                 RAB13E19 SLP128 P0000 T02610222 =

Support USWX by starting your Amazon purchase here.